createdAt,value
2019-05-15T00:01:08.852Z,12.27
2019-05-15T00:03:41.020Z,12.20
2019-05-15T00:06:13.045Z,12.15
2019-05-15T00:08:45.014Z,12.10
2019-05-15T00:11:19.196Z,12.07
2019-05-15T00:13:51.843Z,12.03
2019-05-15T00:16:23.858Z,12.02
2019-05-15T00:18:55.912Z,12.01
2019-05-15T00:21:28.790Z,12.00
2019-05-15T00:24:00.891Z,12.00
2019-05-15T00:26:33.130Z,11.90
2019-05-15T00:29:12.911Z,11.96
2019-05-15T00:31:38.999Z,11.93
2019-05-15T00:34:12.757Z,11.92
2019-05-15T00:36:44.984Z,11.90
2019-05-15T00:39:18.905Z,11.89
2019-05-15T00:41:54.628Z,11.88
2019-05-15T00:44:24.679Z,11.86
2019-05-15T00:46:58.261Z,11.83
2019-05-15T00:49:30.427Z,11.82
2019-05-15T00:52:02.527Z,11.80
2019-05-15T00:54:34.480Z,11.77
2019-05-15T00:57:08.534Z,11.75
2019-05-15T00:59:40.348Z,11.74
2019-05-15T01:02:12.410Z,11.71
2019-05-15T01:04:44.364Z,11.68
2019-05-15T01:07:18.667Z,11.65
2019-05-15T01:09:49.967Z,11.62
2019-05-15T01:12:22.269Z,11.60
2019-05-15T01:14:54.305Z,11.58
2019-05-15T01:17:26.260Z,11.57
2019-05-15T01:19:58.817Z,11.57
2019-05-15T01:22:30.990Z,11.54
2019-05-15T01:25:02.995Z,11.54
2019-05-15T01:27:34.957Z,11.52
2019-05-15T01:30:09.271Z,11.49
2019-05-15T01:32:41.407Z,11.48
2019-05-15T01:35:13.489Z,11.45
2019-05-15T01:37:45.463Z,11.44
2019-05-15T01:40:18.605Z,11.42
2019-05-15T01:42:50.567Z,11.40
2019-05-15T01:45:22.655Z,11.36
2019-05-15T01:47:54.838Z,11.32
2019-05-15T01:50:29.108Z,11.30
2019-05-15T01:53:00.620Z,11.28
2019-05-15T01:55:32.670Z,11.28
2019-05-15T01:58:04.729Z,11.27
2019-05-15T02:00:38.876Z,11.28
2019-05-15T02:03:10.504Z,11.26
2019-05-15T02:05:42.553Z,11.25
2019-05-15T02:08:14.756Z,11.25
2019-05-15T02:10:49.156Z,11.25
2019-05-15T02:13:20.462Z,11.25
2019-05-15T02:15:53.124Z,11.19
2019-05-15T02:18:25.062Z,11.24
2019-05-15T02:20:58.703Z,11.24
2019-05-15T02:23:30.849Z,11.24
2019-05-15T02:26:03.084Z,11.22
2019-05-15T02:28:35.071Z,11.21
2019-05-15T02:31:10.545Z,11.18
2019-05-15T02:33:40.740Z,11.17
2019-05-15T02:36:12.727Z,11.16
2019-05-15T02:38:44.746Z,11.14
2019-05-15T02:41:19.477Z,11.14
2019-05-15T02:43:50.635Z,11.13
2019-05-15T02:46:22.937Z,10.72
2019-05-15T02:48:54.906Z,11.09
2019-05-15T02:51:30.010Z,11.08
2019-05-15T02:54:00.698Z,11.05
2019-05-15T02:56:32.703Z,11.05
2019-05-15T02:59:04.666Z,11.02
2019-05-15T03:01:39.939Z,11.01
2019-05-15T03:04:10.710Z,10.99
2019-05-15T03:06:42.705Z,11.00
2019-05-15T03:09:14.790Z,10.97
2019-05-15T03:11:49.415Z,10.95
2019-05-15T03:14:21.683Z,10.91
2019-05-15T03:16:53.847Z,10.90
2019-05-15T03:19:25.815Z,10.90
2019-05-15T03:21:59.915Z,10.89
2019-05-15T03:24:31.560Z,10.90
2019-05-15T03:27:03.844Z,10.90
2019-05-15T03:29:35.947Z,10.91
2019-05-15T03:32:23.015Z,10.91
2019-05-15T03:34:47.284Z,10.94
2019-05-15T03:37:21.492Z,10.94
2019-05-15T03:39:51.768Z,10.96
2019-05-15T03:42:23.142Z,11.00
2019-05-15T03:44:55.260Z,11.21
2019-05-15T03:47:29.960Z,11.54
2019-05-15T03:50:01.042Z,11.97
2019-05-15T03:52:33.034Z,12.41
2019-05-15T03:55:10.955Z,12.81
2019-05-15T03:57:40.724Z,13.09
2019-05-15T04:00:13.232Z,13.33
2019-05-15T04:02:48.633Z,13.59
2019-05-15T04:05:19.883Z,13.85
2019-05-15T04:07:52.046Z,14.06
2019-05-15T04:10:24.043Z,14.22
2019-05-15T04:12:56.093Z,14.39
2019-05-15T04:15:30.084Z,14.58
2019-05-15T04:18:01.898Z,14.44
2019-05-15T04:20:33.931Z,14.92
2019-05-15T04:23:09.784Z,15.10
2019-05-15T04:25:40.622Z,15.27
2019-05-15T04:28:19.112Z,15.42
2019-05-15T04:30:51.625Z,15.54
2019-05-15T04:33:23.689Z,15.65
2019-05-15T04:35:58.736Z,15.75
2019-05-15T04:38:29.563Z,15.85
2019-05-15T04:41:01.607Z,15.82
2019-05-15T04:43:41.446Z,15.79
2019-05-15T04:46:09.752Z,15.66
2019-05-15T04:48:40.991Z,15.60
2019-05-15T04:51:12.947Z,15.61
2019-05-15T04:53:44.948Z,15.62
2019-05-15T04:56:19.293Z,15.68
2019-05-15T04:58:51.248Z,15.75
2019-05-15T05:01:23.396Z,15.76
2019-05-15T05:03:55.427Z,15.73
2019-05-15T05:06:29.391Z,15.72
2019-05-15T05:09:02.951Z,15.67
2019-05-15T05:11:38.133Z,15.58
2019-05-15T05:14:09.488Z,15.54
2019-05-15T05:16:41.506Z,15.51
2019-05-15T05:19:13.557Z,15.45
2019-05-15T05:21:47.840Z,15.46
2019-05-15T05:24:19.738Z,15.46
2019-05-15T05:26:51.914Z,15.49
2019-05-15T05:29:24.007Z,15.50
2019-05-15T05:31:58.451Z,15.45
2019-05-15T05:34:30.909Z,15.40
2019-05-15T05:37:02.932Z,15.40
2019-05-15T05:39:35.026Z,15.37
2019-05-15T05:42:07.905Z,15.29
2019-05-15T05:44:42.912Z,15.26
2019-05-15T05:47:14.939Z,15.28
2019-05-15T05:49:48.851Z,15.30
2019-05-15T05:52:20.726Z,15.37
2019-05-15T05:54:52.663Z,15.37
2019-05-15T05:57:24.731Z,15.37
2019-05-15T05:59:58.278Z,15.33
2019-05-15T06:02:43.824Z,14.98
2019-05-15T06:05:05.148Z,15.22
2019-05-15T06:07:38.726Z,15.18
2019-05-15T06:10:10.979Z,15.20
2019-05-15T06:12:42.923Z,15.23
2019-05-15T06:15:15.102Z,15.28
2019-05-15T06:17:48.127Z,15.27
2019-05-15T06:20:20.536Z,15.26
2019-05-15T06:22:52.743Z,15.24
2019-05-15T06:25:24.809Z,15.22
2019-05-15T06:27:58.334Z,15.26
2019-05-15T06:30:31.429Z,15.23
2019-05-15T06:33:09.396Z,15.30
2019-05-15T06:35:39.329Z,15.41
2019-05-15T06:38:10.923Z,15.48
2019-05-15T06:40:42.928Z,15.44
2019-05-15T06:43:15.009Z,15.55
2019-05-15T06:45:48.712Z,15.45
2019-05-15T06:48:20.817Z,15.42
2019-05-15T06:50:52.946Z,15.40
2019-05-15T06:53:24.937Z,15.40
2019-05-15T06:55:58.510Z,15.45
2019-05-15T06:58:30.683Z,15.21
2019-05-15T07:01:02.650Z,15.62
2019-05-15T07:03:34.646Z,15.72
2019-05-15T07:06:09.211Z,15.81
2019-05-15T07:08:40.479Z,15.67
2019-05-15T07:11:12.530Z,16.03
2019-05-15T07:13:48.465Z,16.12
2019-05-15T07:16:20.073Z,15.85
2019-05-15T07:18:52.224Z,16.22
2019-05-15T07:21:24.482Z,16.21
2019-05-15T07:23:58.353Z,16.23
2019-05-15T07:26:30.158Z,16.01
2019-05-15T07:29:02.515Z,16.11
2019-05-15T07:31:34.534Z,16.52
2019-05-15T07:34:08.348Z,16.52
2019-05-15T07:36:40.279Z,16.57
2019-05-15T07:39:12.318Z,16.67
2019-05-15T07:41:44.297Z,16.73
2019-05-15T07:44:18.610Z,16.77
2019-05-15T07:46:49.967Z,16.78
2019-05-15T07:49:22.030Z,16.84
2019-05-15T07:51:54.199Z,16.91
2019-05-15T07:54:28.705Z,16.92
2019-05-15T07:57:00.027Z,16.94
2019-05-15T07:59:32.063Z,16.92
2019-05-15T08:02:04.236Z,16.89
2019-05-15T08:04:38.080Z,16.91
2019-05-15T08:07:10.293Z,16.92
2019-05-15T08:09:42.364Z,16.91
2019-05-15T08:12:14.423Z,16.85
2019-05-15T08:14:48.304Z,16.79
2019-05-15T08:17:22.039Z,16.78
2019-05-15T08:19:53.795Z,16.78
2019-05-15T08:22:28.324Z,16.80
2019-05-15T08:24:59.605Z,16.78
2019-05-15T08:27:31.632Z,16.72
2019-05-15T08:30:05.554Z,16.71
2019-05-15T08:32:38.908Z,16.76
2019-05-15T08:35:12.697Z,16.77
2019-05-15T08:37:45.063Z,16.79
2019-05-15T08:40:17.939Z,16.49
2019-05-15T08:42:57.167Z,16.46
2019-05-15T08:45:24.182Z,16.79
2019-05-15T08:47:58.567Z,16.76
2019-05-15T08:50:30.599Z,16.76
2019-05-15T08:53:02.610Z,16.74
2019-05-15T08:55:34.625Z,16.79
2019-05-15T08:58:13.576Z,16.82
2019-05-15T09:00:43.779Z,16.78
2019-05-15T09:03:14.845Z,16.74
2019-05-15T09:05:48.405Z,16.49
2019-05-15T09:08:20.843Z,16.91
2019-05-15T09:10:52.961Z,16.97
2019-05-15T09:13:25.007Z,17.05
2019-05-15T09:15:58.876Z,17.10
2019-05-15T09:18:31.000Z,17.04
2019-05-15T09:21:02.991Z,16.70
2019-05-15T09:23:35.064Z,17.00
2019-05-15T09:26:09.258Z,16.95
2019-05-15T09:28:42.121Z,16.91
2019-05-15T09:31:14.297Z,16.86
2019-05-15T09:33:49.000Z,16.82
2019-05-15T09:36:20.988Z,16.86
2019-05-15T09:38:53.057Z,16.93
2019-05-15T09:41:25.099Z,16.96
2019-05-15T09:43:57.857Z,17.03
2019-05-15T09:46:30.282Z,17.11
2019-05-15T09:49:02.430Z,17.18
2019-05-15T09:51:34.489Z,17.16
2019-05-15T09:54:08.109Z,17.07
2019-05-15T09:56:40.469Z,17.02
2019-05-15T09:59:12.737Z,16.98
2019-05-15T10:01:44.769Z,17.04
2019-05-15T10:04:19.087Z,17.08
2019-05-15T10:06:50.472Z,17.11
2019-05-15T10:09:22.838Z,17.12
2019-05-15T10:11:55.422Z,17.17
2019-05-15T10:14:29.618Z,17.18
2019-05-15T10:17:02.037Z,17.07
2019-05-15T10:19:34.183Z,16.95
2019-05-15T10:22:09.484Z,16.86
2019-05-15T10:24:40.297Z,16.92
2019-05-15T10:27:13.385Z,17.01
2019-05-15T10:29:48.388Z,17.04
2019-05-15T10:32:23.171Z,17.04
2019-05-15T10:34:58.764Z,17.10
2019-05-15T10:37:39.006Z,17.15
2019-05-15T10:40:11.845Z,17.18
2019-05-15T10:42:43.892Z,17.18
2019-05-15T10:45:18.981Z,17.18
2019-05-15T10:47:50.158Z,17.19
2019-05-15T10:50:22.646Z,17.20
2019-05-15T10:52:54.694Z,17.20
2019-05-15T10:55:28.882Z,17.24
2019-05-15T10:58:00.921Z,17.27
2019-05-15T11:00:33.099Z,17.25
2019-05-15T11:03:05.225Z,17.23
2019-05-15T11:05:45.098Z,17.19
2019-05-15T11:08:11.313Z,17.18
2019-05-15T11:10:43.597Z,17.16
2019-05-15T11:13:18.383Z,17.15
2019-05-15T11:15:51.077Z,17.15
2019-05-15T11:18:23.190Z,17.16
2019-05-15T11:20:55.736Z,17.13
2019-05-15T11:23:29.274Z,17.14
2019-05-15T11:26:01.421Z,17.16
2019-05-15T11:28:34.175Z,17.15
2019-05-15T11:31:09.947Z,16.81
2019-05-15T11:33:40.879Z,17.11
2019-05-15T11:36:13.591Z,17.11
2019-05-15T11:38:45.625Z,17.10
2019-05-15T11:41:19.145Z,17.04
2019-05-15T11:43:51.508Z,17.03
2019-05-15T11:46:25.842Z,17.03
2019-05-15T11:48:58.988Z,17.04
2019-05-15T11:51:31.203Z,17.05
2019-05-15T11:54:03.546Z,17.02
2019-05-15T11:56:35.619Z,17.04
2019-05-15T11:59:08.558Z,17.00
2019-05-15T12:01:40.603Z,16.98
2019-05-15T12:04:26.616Z,17.00
2019-05-15T12:06:58.188Z,17.01
2019-05-15T12:09:20.042Z,17.00
2019-05-15T12:11:52.121Z,16.98
2019-05-15T12:14:24.300Z,16.97
2019-05-15T12:17:07.202Z,17.01
2019-05-15T12:19:30.260Z,17.05
2019-05-15T12:22:02.319Z,17.01
2019-05-15T12:27:15.238Z,16.99
2019-05-15T12:29:41.829Z,16.70
2019-05-15T12:32:26.605Z,17.07
2019-05-15T12:34:51.252Z,16.97
2019-05-15T12:37:23.390Z,16.84
2019-05-15T13:00:38.144Z,16.84
2019-05-15T13:03:11.331Z,16.81
2019-05-15T13:05:43.482Z,16.86
2019-05-15T13:08:15.454Z,16.87
2019-05-15T13:10:48.753Z,16.86
2019-05-15T13:13:21.523Z,16.87
2019-05-15T13:15:53.547Z,16.86
2019-05-15T13:18:25.555Z,16.85
2019-05-15T13:20:59.400Z,16.80
2019-05-15T13:23:31.243Z,16.68
2019-05-15T13:26:03.364Z,16.60
2019-05-15T13:28:35.361Z,16.63
2019-05-15T13:31:09.197Z,16.66
2019-05-15T13:33:41.336Z,16.63
2019-05-15T13:36:13.293Z,16.62
2019-05-15T13:38:48.131Z,16.65
2019-05-15T13:41:20.363Z,16.64
2019-05-15T13:43:52.565Z,16.60
2019-05-15T13:46:24.966Z,16.49
2019-05-15T13:48:59.147Z,16.40
2019-05-15T13:51:31.063Z,16.42
2019-05-15T13:54:03.022Z,16.42
2019-05-15T13:56:35.046Z,16.39
2019-05-15T13:59:08.023Z,16.37
2019-05-15T14:01:40.182Z,16.48
2019-05-15T14:04:12.182Z,16.62
2019-05-15T14:06:44.096Z,16.67
2019-05-15T14:09:16.053Z,16.65
2019-05-15T14:11:49.390Z,16.66
2019-05-15T14:14:21.656Z,16.67
2019-05-15T14:16:53.672Z,16.69
2019-05-15T14:19:27.963Z,16.68
2019-05-15T14:21:59.950Z,16.64
2019-05-15T14:24:32.166Z,16.61
2019-05-15T14:27:04.128Z,16.50
2019-05-15T14:29:36.151Z,16.42
2019-05-15T14:32:08.735Z,16.47
2019-05-15T14:34:41.277Z,16.47
2019-05-15T14:37:13.289Z,16.44
2019-05-15T14:39:45.259Z,16.51
2019-05-15T14:42:18.669Z,16.55
2019-05-15T14:44:50.819Z,16.53
2019-05-15T14:47:26.245Z,16.56
2019-05-15T14:49:58.401Z,16.57
2019-05-15T14:52:30.563Z,16.60
2019-05-15T14:55:02.516Z,16.62
2019-05-15T14:57:34.714Z,16.62
2019-05-15T15:00:10.110Z,16.67
2019-05-15T15:02:42.206Z,16.69
2019-05-15T15:05:14.363Z,16.70
2019-05-15T15:07:48.791Z,16.70
2019-05-15T15:10:20.428Z,16.72
2019-05-15T15:12:52.337Z,16.38
2019-05-15T15:15:24.590Z,16.69
2019-05-15T15:17:58.358Z,16.65
2019-05-15T15:20:30.489Z,16.63
2019-05-15T15:23:02.447Z,16.56
2019-05-15T15:25:34.493Z,16.56
2019-05-15T15:28:08.285Z,16.55
2019-05-15T15:30:40.565Z,16.54
2019-05-15T15:33:12.538Z,16.21
2019-05-15T15:35:44.502Z,16.57
2019-05-15T15:38:16.492Z,16.62
2019-05-15T15:40:48.717Z,16.62
2019-05-15T15:43:21.006Z,16.57
2019-05-15T15:45:53.297Z,16.52
2019-05-15T15:48:28.576Z,16.50
2019-05-15T15:51:00.179Z,16.52
2019-05-15T15:53:32.324Z,16.51
2019-05-15T15:56:06.975Z,16.53
2019-05-15T15:58:38.417Z,16.56
2019-05-15T16:01:10.389Z,16.53
2019-05-15T16:03:42.433Z,16.50
2019-05-15T16:06:14.382Z,16.52
2019-05-15T16:08:52.937Z,16.52
2019-05-15T16:11:20.811Z,16.54
2019-05-15T16:13:52.858Z,16.56
2019-05-15T16:16:24.909Z,16.55
2019-05-15T16:18:56.927Z,16.52
2019-05-15T16:21:29.682Z,16.53
2019-05-15T16:24:13.686Z,16.51
2019-05-15T16:26:35.448Z,16.45
2019-05-15T16:29:09.176Z,16.41
2019-05-15T16:31:41.134Z,16.36
2019-05-15T16:34:13.205Z,15.99
2019-05-15T16:36:45.188Z,16.31
2019-05-15T16:39:18.219Z,16.30
2019-05-15T16:41:50.416Z,16.29
2019-05-15T16:44:22.771Z,16.31
2019-05-15T16:46:54.834Z,16.34
2019-05-15T16:49:28.469Z,16.33
2019-05-15T16:52:00.600Z,16.31
2019-05-15T16:54:32.625Z,16.23
2019-05-15T16:57:04.935Z,16.14
2019-05-15T16:59:39.042Z,16.09
2019-05-15T17:02:11.214Z,16.05
2019-05-15T17:04:44.002Z,16.00
2019-05-15T17:07:18.082Z,15.95
2019-05-15T17:09:49.783Z,15.96
2019-05-15T17:12:21.736Z,16.00
2019-05-15T17:14:53.679Z,15.98
2019-05-15T17:17:25.625Z,15.93
2019-05-15T17:19:58.015Z,15.87
2019-05-15T17:22:30.276Z,15.50
2019-05-15T17:25:02.291Z,15.78
2019-05-15T17:27:37.079Z,15.76
2019-05-15T17:30:09.875Z,15.77
2019-05-15T17:32:41.949Z,15.81
2019-05-15T17:35:14.670Z,15.83
2019-05-15T17:37:48.650Z,15.80
2019-05-15T17:40:20.655Z,15.82
2019-05-15T17:42:52.625Z,15.80
2019-05-15T17:45:24.949Z,15.79
2019-05-15T17:47:58.464Z,15.81
2019-05-15T17:50:44.742Z,15.85
2019-05-15T17:53:04.249Z,15.84
2019-05-15T17:55:38.437Z,15.82
2019-05-15T17:58:10.513Z,15.77
2019-05-15T18:00:42.629Z,15.69
2019-05-15T18:03:14.638Z,15.33
2019-05-15T18:05:48.412Z,15.67
2019-05-15T18:08:20.424Z,15.67
2019-05-15T18:10:52.511Z,15.66
2019-05-15T18:13:24.525Z,15.64
2019-05-15T18:16:03.208Z,15.62
2019-05-15T18:18:31.584Z,15.57
2019-05-15T18:21:03.555Z,15.51
2019-05-15T18:23:35.681Z,15.45
2019-05-15T18:26:09.054Z,15.41
2019-05-15T18:28:41.446Z,15.41
2019-05-15T18:31:13.509Z,15.39
2019-05-15T18:33:53.378Z,15.35
2019-05-15T18:36:19.378Z,15.34
2019-05-15T18:38:51.342Z,15.33
2019-05-15T18:41:23.519Z,15.32
2019-05-15T18:43:57.760Z,15.29
2019-05-15T18:46:29.191Z,15.26
2019-05-15T18:49:01.467Z,15.24
2019-05-15T18:51:33.559Z,15.21
2019-05-15T18:54:08.011Z,15.14
2019-05-15T18:56:39.524Z,15.09
2019-05-15T18:59:11.512Z,15.08
2019-05-15T19:01:43.635Z,15.07
2019-05-15T19:04:18.139Z,15.04
2019-05-15T19:06:49.802Z,14.62
2019-05-15T19:09:21.794Z,15.05
2019-05-15T19:11:54.107Z,14.67
2019-05-15T19:14:28.003Z,14.79
2019-05-15T19:16:59.931Z,15.00
2019-05-15T19:19:31.902Z,14.99
2019-05-15T19:22:04.159Z,14.99
2019-05-15T19:24:39.933Z,14.97
2019-05-15T19:27:09.928Z,14.94
2019-05-15T19:29:41.926Z,14.96
2019-05-15T19:32:14.010Z,14.95
2019-05-15T19:34:48.214Z,14.93
2019-05-15T19:37:19.889Z,14.90
2019-05-15T19:39:51.958Z,14.57
2019-05-15T19:42:23.895Z,14.94
2019-05-15T19:44:56.135Z,14.90
2019-05-15T19:47:28.204Z,14.85
2019-05-15T19:50:00.255Z,14.81
2019-05-15T19:52:32.271Z,14.75
2019-05-15T19:55:05.465Z,14.71
2019-05-15T19:57:38.987Z,14.68
2019-05-15T20:00:11.938Z,14.66
2019-05-15T20:02:43.978Z,14.64
2019-05-15T20:05:18.175Z,14.59
2019-05-15T20:07:49.868Z,14.47
2019-05-15T20:10:21.835Z,14.41
2019-05-15T20:12:53.803Z,14.40
2019-05-15T20:15:28.353Z,14.42
2019-05-15T20:18:00.666Z,14.39
2019-05-15T20:20:32.983Z,14.33
2019-05-15T20:23:05.019Z,14.32
2019-05-15T20:25:38.301Z,14.28
2019-05-15T20:28:10.309Z,14.29
2019-05-15T20:30:42.270Z,14.33
2019-05-15T20:33:14.514Z,14.33
2019-05-15T20:35:48.019Z,14.30
2019-05-15T20:38:20.919Z,14.32
2019-05-15T20:40:53.283Z,14.35
2019-05-15T20:43:25.251Z,14.38
2019-05-15T20:45:57.709Z,14.01
2019-05-15T20:48:29.880Z,14.33
2019-05-15T20:51:01.941Z,14.23
2019-05-15T20:53:33.931Z,14.18
2019-05-15T20:56:08.187Z,14.13
2019-05-15T20:58:39.586Z,13.97
2019-05-15T21:01:11.561Z,14.05
2019-05-15T21:03:43.505Z,13.98
2019-05-15T21:06:17.736Z,13.66
2019-05-15T21:08:49.322Z,13.92
2019-05-15T21:11:21.903Z,13.90
2019-05-15T21:13:54.174Z,13.92
2019-05-15T21:16:27.990Z,13.90
2019-05-15T21:19:00.301Z,13.86
2019-05-15T21:21:32.618Z,13.87
2019-05-15T21:24:04.626Z,13.86
2019-05-15T21:26:38.296Z,13.80
2019-05-15T21:29:10.372Z,13.78
2019-05-15T21:31:42.502Z,13.74
2019-05-15T21:34:14.463Z,13.71
2019-05-15T21:36:48.314Z,13.71
2019-05-15T21:39:20.219Z,13.74
2019-05-15T21:41:52.290Z,13.77
2019-05-15T21:44:24.254Z,13.73
2019-05-15T21:46:58.604Z,13.35
2019-05-15T21:49:30.013Z,13.74
2019-05-15T21:52:02.142Z,13.73
2019-05-15T21:54:34.166Z,13.73
2019-05-15T21:57:28.372Z,13.66
2019-05-15T21:59:40.426Z,13.61
2019-05-15T22:02:13.007Z,13.33
2019-05-15T22:04:52.682Z,13.63
2019-05-15T22:07:18.979Z,13.65
2019-05-15T22:09:51.476Z,13.67
2019-05-15T22:12:23.685Z,13.71
2019-05-15T22:14:57.676Z,13.72
2019-05-15T22:17:29.525Z,13.74
2019-05-15T22:20:01.651Z,13.75
2019-05-15T22:22:33.643Z,13.73
2019-05-15T22:25:11.249Z,13.69
2019-05-15T22:27:44.962Z,13.24
2019-05-15T22:30:19.807Z,13.68
2019-05-15T22:32:51.761Z,13.71
2019-05-15T22:35:24.418Z,13.69
2019-05-15T22:37:58.433Z,13.69
2019-05-15T22:40:30.413Z,13.69
2019-05-15T22:43:02.376Z,13.73
2019-05-15T22:45:34.415Z,12.09
2019-05-15T22:48:06.478Z,13.78
2019-05-15T22:50:38.549Z,13.74
2019-05-15T22:53:10.625Z,13.74
2019-05-15T22:55:42.883Z,13.77
2019-05-15T22:58:15.094Z,13.78
2019-05-15T23:00:48.975Z,13.74
2019-05-15T23:03:21.124Z,13.74
2019-05-15T23:05:53.259Z,13.75
2019-05-15T23:08:25.577Z,13.73
2019-05-15T23:10:58.735Z,13.69
2019-05-15T23:13:30.894Z,13.64
2019-05-15T23:16:02.890Z,13.61
2019-05-15T23:18:34.858Z,13.52
2019-05-15T23:21:08.852Z,13.33
2019-05-15T23:23:41.251Z,13.52
2019-05-15T23:26:13.244Z,13.55
2019-05-15T23:28:45.229Z,13.57
2019-05-15T23:31:18.871Z,13.51
2019-05-15T23:33:51.054Z,13.52
2019-05-15T23:36:23.047Z,13.52
2019-05-15T23:38:55.090Z,13.52
2019-05-15T23:41:28.104Z,13.49
2019-05-15T23:44:00.522Z,13.52
2019-05-15T23:46:32.557Z,13.51
2019-05-15T23:49:04.563Z,13.52
2019-05-15T23:51:42.115Z,13.52
2019-05-15T23:54:14.137Z,13.44
2019-05-15T23:56:47.029Z,13.43
2019-05-15T23:59:19.104Z,13.45
